Time;durP1;ratioP1;P1;durP2;ratioP2;P2;SDS_P1;SDS_P2;PMS_P1;PMS_P2;Temp;Humidity;BMP_temperature;BMP_pressure;BME280_temperature;BME280_humidity;BME280_pressure;Samples;Min_cycle;Max_cycle;Signal;HPM_P1;HPM_P2
2022/12/10 00:01:42;;;;;;;4.90;4.57;;;19.10;38.40;;;;;;4988467;28;21155;-62
2022/12/10 00:04:08;;;;;;;4.50;4.20;;;19.10;38.40;;;;;;4983088;28;20846;-62
2022/12/10 00:06:35;;;;;;;4.03;3.80;;;19.10;38.40;;;;;;4982847;28;20460;-63
2022/12/10 00:09:03;;;;;;;4.80;4.23;;;19.10;38.40;;;;;;4994406;28;20693;-63
2022/12/10 00:11:29;;;;;;;4.47;4.27;;;19.10;38.40;;;;;;4988443;28;20471;-63
2022/12/10 00:13:55;;;;;;;4.20;3.90;;;19.10;38.40;;;;;;4994953;28;20566;-62
2022/12/10 00:16:22;;;;;;;4.20;4.00;;;19.10;38.40;;;;;;4994673;28;21825;-63
2022/12/10 00:18:49;;;;;;;4.20;4.00;;;19.10;38.40;;;;;;4995155;28;20467;-62
2022/12/10 00:21:17;;;;;;;4.20;4.00;;;19.10;38.40;;;;;;4991335;28;20476;-63
2022/12/10 00:23:43;;;;;;;4.47;4.17;;;19.10;38.40;;;;;;4983197;28;20480;-62
2022/12/10 00:26:11;;;;;;;4.03;3.83;;;19.10;38.40;;;;;;4975696;28;20454;-62
2022/12/10 00:28:38;;;;;;;4.60;4.20;;;19.10;38.40;;;;;;4976287;28;20224;-62
2022/12/10 00:31:12;;;;;;;4.40;4.10;;;19.10;38.50;;;;;;4976578;28;20983;-62
2022/12/10 00:33:38;;;;;;;4.27;4.07;;;19.10;38.40;;;;;;4978127;28;21716;-62
2022/12/10 00:36:10;;;;;;;4.27;4.07;;;19.10;38.40;;;;;;4990241;28;20461;-63
2022/12/10 00:38:36;;;;;;;4.03;3.73;;;19.10;38.40;;;;;;4997573;28;20420;-62
2022/12/10 00:41:03;;;;;;;4.20;4.00;;;19.10;38.40;;;;;;4995762;28;20951;-63
2022/12/10 00:43:28;;;;;;;4.90;4.60;;;19.10;38.40;;;;;;4979829;28;20444;-62
2022/12/10 00:45:54;;;;;;;4.37;4.07;;;19.10;38.40;;;;;;4978185;28;20449;-62
2022/12/10 00:48:21;;;;;;;4.60;4.30;;;19.10;38.40;;;;;;4973487;28;20228;-62
2022/12/10 00:51:04;;;;;;;4.13;3.93;;;19.10;38.40;;;;;;4973926;28;20561;-63
2022/12/10 00:53:32;;;;;;;3.93;3.70;;;19.10;38.40;;;;;;4979257;28;20540;-62
2022/12/10 00:55:58;;;;;;;4.70;4.50;;;19.10;38.40;;;;;;4984989;28;20457;-62
2022/12/10 00:58:27;;;;;;;3.97;3.77;;;19.10;38.40;;;;;;4980470;28;20478;-62
2022/12/10 01:00:52;;;;;;;4.87;4.47;;;19.10;38.50;;;;;;4979536;28;20436;-62
2022/12/10 01:03:18;;;;;;;4.33;4.03;;;19.10;38.40;;;;;;4972855;28;20475;-62
2022/12/10 01:05:44;;;;;;;4.50;4.10;;;19.10;38.40;;;;;;4974489;28;21087;-62
2022/12/10 01:08:10;;;;;;;3.83;3.53;;;19.10;38.40;;;;;;4980452;28;20213;-62
2022/12/10 01:10:35;;;;;;;3.67;3.47;;;19.10;38.40;;;;;;4976627;28;21280;-63
2022/12/10 01:13:01;;;;;;;4.43;4.23;;;19.10;38.40;;;;;;4981789;28;20208;-64
2022/12/10 01:15:26;;;;;;;4.13;3.93;;;19.10;38.40;;;;;;4977015;28;20247;-63
2022/12/10 01:17:52;;;;;;;4.17;3.97;;;19.10;38.40;;;;;;4982149;28;20219;-62
2022/12/10 01:20:17;;;;;;;3.80;3.60;;;19.10;38.40;;;;;;4961102;28;20386;-62
2022/12/10 01:22:43;;;;;;;4.57;4.37;;;19.00;38.30;;;;;;4972545;28;20756;-62
2022/12/10 01:25:08;;;;;;;4.60;4.30;;;19.10;38.40;;;;;;4971078;28;20222;-62
2022/12/10 01:27:34;;;;;;;4.70;4.40;;;19.00;38.40;;;;;;4979621;28;20223;-64
2022/12/10 01:29:59;;;;;;;3.80;3.60;;;19.00;38.30;;;;;;4968801;28;20248;-63
2022/12/10 01:32:25;;;;;;;4.07;3.77;;;19.00;38.30;;;;;;4976759;28;20220;-63
2022/12/10 01:34:51;;;;;;;4.13;3.90;;;19.00;39.10;;;;;;4966935;28;20961;-63
2022/12/10 01:37:16;;;;;;;4.00;3.77;;;19.00;38.30;;;;;;4972772;28;20310;-63
2022/12/10 01:39:42;;;;;;;3.97;3.77;;;19.00;38.30;;;;;;4970308;28;20224;-62
2022/12/10 01:42:12;;;;;;;4.60;4.20;;;19.10;38.40;;;;;;4990230;28;20306;-63
2022/12/10 01:44:41;;;;;;;3.60;3.40;;;19.00;38.30;;;;;;4977306;28;20856;-63
2022/12/10 01:47:07;;;;;;;3.90;3.70;;;19.00;38.30;;;;;;4970736;28;20466;-63
2022/12/10 01:49:36;;;;;;;3.77;3.57;;;19.00;38.30;;;;;;4980029;28;20469;-63
2022/12/10 01:52:03;;;;;;;4.50;4.20;;;19.10;38.40;;;;;;4971209;28;20714;-63
2022/12/10 01:54:36;;;;;;;4.20;3.87;;;19.00;38.30;;;;;;4973948;28;20461;-63
2022/12/10 01:57:05;;;;;;;3.80;3.60;;;19.00;38.30;;;;;;4968872;28;21096;-62
2022/12/10 01:59:32;;;;;;;4.60;4.20;;;19.00;38.40;;;;;;4977770;28;20486;-64
2022/12/10 02:02:04;;;;;;;4.33;4.03;;;19.00;38.30;;;;;;4968790;28;21186;-62
2022/12/10 02:05:06;;;;;;;4.00;3.70;;;19.00;38.30;;;;;;4967966;28;21037;-62
2022/12/10 02:08:00;;;;;;;3.90;3.70;;;19.00;38.30;;;;;;4963549;28;20476;-62
2022/12/10 02:11:08;;;;;;;4.20;4.00;;;19.00;38.30;;;;;;4982091;28;20479;-62
2022/12/10 02:13:40;;;;;;;3.83;3.63;;;19.00;38.30;;;;;;4970257;28;20851;-63
2022/12/10 02:16:14;;;;;;;3.97;3.77;;;19.00;38.30;;;;;;4973495;28;20471;-62
2022/12/10 02:18:54;;;;;;;3.90;3.70;;;19.00;38.30;;;;;;4974395;28;20966;-63
2022/12/10 02:21:27;;;;;;;4.00;3.73;;;19.00;38.30;;;;;;4968555;28;20472;-63
2022/12/10 02:23:59;;;;;;;3.47;3.27;;;19.00;38.30;;;;;;4970041;28;20523;-62
2022/12/10 02:26:36;;;;;;;4.00;3.70;;;19.00;38.30;;;;;;4974869;28;20512;-63
2022/12/10 02:29:16;;;;;;;3.87;3.67;;;19.00;38.30;;;;;;4979705;28;20785;-63
2022/12/10 02:31:48;;;;;;;3.97;3.67;;;19.00;38.40;;;;;;4977283;28;20559;-62
2022/12/10 02:34:16;;;;;;;4.10;3.90;;;19.00;38.30;;;;;;4993514;28;20422;-62
2022/12/10 02:36:44;;;;;;;3.73;3.53;;;19.00;38.30;;;;;;4998754;28;20436;-63
2022/12/10 02:39:14;;;;;;;3.50;3.30;;;19.00;38.40;;;;;;4984060;28;21013;-62
2022/12/10 02:41:49;;;;;;;4.50;4.20;;;19.00;38.30;;;;;;4972421;28;20576;-62
2022/12/10 02:44:18;;;;;;;3.53;3.33;;;19.00;38.30;;;;;;4974076;28;20431;-62
2022/12/10 02:46:45;;;;;;;4.13;3.83;;;19.00;38.30;;;;;;4982968;28;20459;-62
2022/12/10 02:49:14;;;;;;;4.00;3.80;;;19.00;38.30;;;;;;4987843;28;20464;-63
2022/12/10 02:51:39;;;;;;;3.57;3.37;;;19.00;38.30;;;;;;4979530;28;20444;-63
2022/12/10 02:54:26;;;;;;;3.40;3.20;;;19.00;38.30;;;;;;4976579;28;20509;-62
2022/12/10 02:57:00;;;;;;;3.83;3.63;;;19.00;38.30;;;;;;4993105;28;20262;-62
2022/12/10 02:59:43;;;;;;;3.63;3.43;;;19.00;38.30;;;;;;4990037;28;20478;-62
2022/12/10 03:02:19;;;;;;;3.90;3.70;;;19.00;39.10;;;;;;4984176;28;20413;-62
2022/12/10 03:05:01;;;;;;;3.93;3.73;;;19.00;38.30;;;;;;4979265;28;20462;-62
2022/12/10 03:07:55;;;;;;;4.00;3.80;;;19.00;38.30;;;;;;4977857;28;20942;-62
2022/12/10 03:10:33;;;;;;;3.97;3.60;;;19.00;38.30;;;;;;4976307;28;20424;-63
2022/12/10 03:13:03;;;;;;;4.10;3.90;;;19.00;38.30;;;;;;4985264;28;20497;-62
2022/12/10 03:15:33;;;;;;;3.87;3.67;;;19.00;38.30;;;;;;4985741;28;20432;-62
2022/12/10 03:18:03;;;;;;;4.67;4.37;;;19.00;38.30;;;;;;4981931;28;20465;-62
2022/12/10 03:20:32;;;;;;;3.47;3.27;;;19.00;38.30;;;;;;4980755;28;20457;-62
2022/12/10 03:22:57;;;;;;;4.00;3.80;;;19.00;38.30;;;;;;4983199;28;20444;-63
2022/12/10 03:25:26;;;;;;;3.87;3.67;;;19.00;38.30;;;;;;4983544;28;20461;-63
2022/12/10 03:27:55;;;;;;;3.63;3.43;;;19.00;38.30;;;;;;4987627;28;20273;-63
2022/12/10 03:30:21;;;;;;;3.53;3.33;;;19.00;38.30;;;;;;4972102;28;20451;-63
2022/12/10 03:32:47;;;;;;;3.87;3.67;;;19.00;38.30;;;;;;4994844;28;20428;-62
2022/12/10 03:35:15;;;;;;;3.37;3.17;;;19.00;38.30;;;;;;4993975;28;20436;-62
2022/12/10 03:37:41;;;;;;;4.33;4.13;;;19.00;38.30;;;;;;4997913;28;20442;-63
2022/12/10 03:40:08;;;;;;;4.20;3.93;;;19.00;38.30;;;;;;4996589;28;20431;-62
2022/12/10 03:42:36;;;;;;;4.00;3.80;;;19.00;38.30;;;;;;4991789;28;20443;-62
2022/12/10 03:45:02;;;;;;;3.73;3.53;;;19.00;38.30;;;;;;4977955;28;20496;-62
2022/12/10 03:47:28;;;;;;;4.23;4.03;;;19.00;38.30;;;;;;4983275;28;20436;-64
2022/12/10 03:49:53;;;;;;;4.03;3.73;;;19.00;38.30;;;;;;4980014;28;20229;-63
2022/12/10 03:52:19;;;;;;;3.40;3.20;;;19.00;38.30;;;;;;4993152;28;20219;-64
2022/12/10 03:54:44;;;;;;;4.20;4.00;;;19.00;38.30;;;;;;4992894;28;20610;-64
2022/12/10 03:57:10;;;;;;;4.30;4.10;;;19.00;38.30;;;;;;4989940;28;20290;-62
2022/12/10 03:59:35;;;;;;;3.40;3.20;;;19.00;38.30;;;;;;4978344;28;20221;-63
2022/12/10 04:02:01;;;;;;;3.60;3.40;;;19.00;38.30;;;;;;4976900;28;20287;-62
2022/12/10 04:04:26;;;;;;;4.13;3.93;;;19.00;38.30;;;;;;4989974;28;20270;-62
2022/12/10 04:06:52;;;;;;;4.23;4.03;;;19.00;38.30;;;;;;4997960;28;21583;-63
2022/12/10 04:09:18;;;;;;;3.80;3.60;;;19.00;38.30;;;;;;4982438;28;20224;-62
2022/12/10 04:11:44;;;;;;;4.10;3.80;;;19.00;38.30;;;;;;4979822;28;20251;-63
2022/12/10 04:16:55;;;;;;;4.20;4.00;;;19.00;38.30;;;;;;4985624;28;20721;-63
2022/12/10 04:19:21;;;;;;;4.67;4.37;;;19.00;38.30;;;;;;4993960;28;20427;-63
2022/12/10 04:27:25;;;;;;;4.30;3.90;;;19.00;38.30;;;;;;4984193;28;20460;-63
2022/12/10 04:29:52;;;;;;;3.60;3.40;;;19.00;38.30;;;;;;4991406;28;20493;-63
2022/12/10 04:32:19;;;;;;;4.07;3.80;;;19.00;38.30;;;;;;4997552;28;21011;-63
2022/12/10 04:34:45;;;;;;;4.07;3.87;;;19.00;38.30;;;;;;4990559;28;20454;-63
2022/12/10 04:37:11;;;;;;;4.23;3.93;;;19.00;38.30;;;;;;4975540;28;20449;-63
2022/12/10 04:39:37;;;;;;;3.70;3.50;;;19.00;38.30;;;;;;4976605;28;20217;-63
2022/12/10 04:42:04;;;;;;;4.07;3.87;;;19.00;38.20;;;;;;4984281;28;20470;-63
2022/12/10 04:44:29;;;;;;;3.83;3.63;;;19.00;38.20;;;;;;4986252;28;20452;-63
2022/12/10 04:46:55;;;;;;;4.10;3.90;;;19.00;38.20;;;;;;4996569;28;20477;-63
2022/12/10 04:49:21;;;;;;;4.20;3.80;;;19.00;38.20;;;;;;4982775;28;20242;-63
2022/12/10 04:51:47;;;;;;;3.80;3.60;;;19.00;38.10;;;;;;4977512;28;20591;-63
2022/12/10 04:54:13;;;;;;;4.00;3.80;;;19.00;38.10;;;;;;4977556;28;20466;-62
2022/12/10 04:56:39;;;;;;;4.30;4.00;;;19.00;38.10;;;;;;4971923;28;20232;-63
2022/12/10 04:59:06;;;;;;;4.80;4.50;;;19.00;38.20;;;;;;4981135;28;20228;-63
2022/12/10 05:01:32;;;;;;;4.20;4.00;;;19.00;38.10;;;;;;4984349;28;20462;-63
2022/12/10 05:03:59;;;;;;;3.37;3.17;;;19.00;38.00;;;;;;4962935;28;20469;-62
2022/12/10 05:06:25;;;;;;;3.73;3.53;;;19.00;38.00;;;;;;4975253;28;20539;-63
2022/12/10 05:08:51;;;;;;;3.87;3.67;;;19.10;38.00;;;;;;4990756;28;20464;-62
2022/12/10 05:11:22;;;;;;;3.80;3.60;;;19.10;38.10;;;;;;4995351;28;20850;-62
2022/12/10 05:13:47;;;;;;;3.90;3.63;;;19.10;38.00;;;;;;4973240;28;20621;-62
2022/12/10 05:16:15;;;;;;;4.37;4.17;;;19.10;38.10;;;;;;4964137;28;21176;-63
2022/12/10 05:18:41;;;;;;;4.40;4.10;;;19.10;38.00;;;;;;4985687;28;20228;-63
2022/12/10 05:21:13;;;;;;;4.30;4.00;;;19.10;37.90;;;;;;4989544;28;20503;-62
2022/12/10 05:23:40;;;;;;;3.60;3.40;;;19.10;37.90;;;;;;4990151;28;20228;-63
2022/12/10 05:26:15;;;;;;;4.33;4.00;;;19.10;37.90;;;;;;4989368;28;21187;-62
2022/12/10 05:28:43;;;;;;;4.03;3.83;;;19.10;38.00;;;;;;5003539;28;20433;-63
2022/12/10 05:31:23;;;;;;;3.70;3.50;;;19.10;38.00;;;;;;4996766;28;20447;-63
2022/12/10 05:33:49;;;;;;;3.73;3.53;;;19.10;38.00;;;;;;4994617;28;20469;-64
2022/12/10 05:36:17;;;;;;;4.17;3.87;;;19.10;37.90;;;;;;4982742;28;20448;-63
2022/12/10 05:38:43;;;;;;;3.83;3.63;;;19.10;37.80;;;;;;4979171;28;20420;-63
2022/12/10 05:41:13;;;;;;;5.03;4.57;;;19.10;37.90;;;;;;4973783;28;20447;-62
2022/12/10 05:43:39;;;;;;;3.90;3.60;;;19.10;37.80;;;;;;4973256;28;20455;-63
2022/12/10 05:46:09;;;;;;;4.40;4.13;;;19.20;37.90;;;;;;4973609;28;20458;-63
2022/12/10 05:48:35;;;;;;;3.90;3.70;;;19.10;37.80;;;;;;4977015;28;20557;-62
2022/12/10 05:51:09;;;;;;;3.97;3.77;;;19.10;37.80;;;;;;4977153;28;20498;-63
2022/12/10 05:53:36;;;;;;;3.90;3.70;;;19.10;37.80;;;;;;4973423;28;20433;-63
2022/12/10 05:56:05;;;;;;;4.00;3.80;;;19.10;37.80;;;;;;4979308;28;20467;-63
2022/12/10 05:58:31;;;;;;;3.90;3.70;;;19.10;37.80;;;;;;4981439;28;20481;-63
2022/12/10 06:00:57;;;;;;;4.00;3.80;;;19.20;37.90;;;;;;4994323;28;20497;-63
2022/12/10 06:03:24;;;;;;;3.80;3.60;;;19.10;37.90;;;;;;4998512;28;20427;-64
2022/12/10 06:05:50;;;;;;;3.80;3.60;;;19.10;37.80;;;;;;4996986;28;20446;-62
2022/12/10 06:08:16;;;;;;;3.80;3.60;;;19.10;37.80;;;;;;4979607;28;20436;-63
2022/12/10 06:10:41;;;;;;;4.47;4.27;;;19.20;37.90;;;;;;4984472;28;20235;-63
2022/12/10 06:13:06;;;;;;;4.50;4.30;;;19.20;37.90;;;;;;4995897;28;20310;-62
2022/12/10 06:15:32;;;;;;;3.53;3.33;;;19.10;37.80;;;;;;4978261;28;20212;-63
2022/12/10 06:17:59;;;;;;;3.73;3.53;;;19.10;37.80;;;;;;4978274;28;20900;-62
2022/12/10 06:20:25;;;;;;;3.70;3.50;;;19.20;37.90;;;;;;4975819;28;20234;-63
2022/12/10 06:22:51;;;;;;;3.20;3.00;;;19.20;37.80;;;;;;4973953;28;20436;-62
2022/12/10 06:25:17;;;;;;;3.87;3.60;;;19.10;37.80;;;;;;4987799;28;20411;-63
2022/12/10 06:27:42;;;;;;;3.80;3.60;;;19.10;37.70;;;;;;4987449;28;20450;-62
2022/12/10 06:30:09;;;;;;;3.57;3.37;;;19.10;37.70;;;;;;4996318;28;20243;-63
2022/12/10 06:32:34;;;;;;;4.27;3.97;;;19.20;37.80;;;;;;4997795;28;20822;-63
2022/12/10 06:35:00;;;;;;;3.63;3.43;;;19.20;37.90;;;;;;4992942;28;20489;-63
2022/12/10 06:37:26;;;;;;;3.40;3.20;;;19.10;37.70;;;;;;4994252;28;20223;-62
2022/12/10 06:39:52;;;;;;;4.70;4.50;;;19.10;37.70;;;;;;4990506;28;20230;-62
2022/12/10 06:42:19;;;;;;;4.80;3.90;;;19.20;37.70;;;;;;4993959;28;20222;-62
2022/12/10 06:44:44;;;;;;;3.20;3.00;;;19.20;37.70;;;;;;4994550;28;20428;-63
2022/12/10 06:47:10;;;;;;;3.80;3.60;;;19.20;37.70;;;;;;4986888;28;20448;-62
2022/12/10 06:49:35;;;;;;;3.53;3.33;;;19.20;37.70;;;;;;4996503;28;20218;-62
2022/12/10 06:52:02;;;;;;;3.83;3.53;;;19.20;37.70;;;;;;4992282;28;20695;-63
2022/12/10 06:54:27;;;;;;;3.60;3.40;;;19.20;37.70;;;;;;4996061;28;20218;-63
2022/12/10 06:56:53;;;;;;;4.30;4.00;;;19.20;37.60;;;;;;4994697;28;20453;-63
2022/12/10 06:59:20;;;;;;;3.53;3.33;;;19.20;37.70;;;;;;4994805;28;20286;-62
2022/12/10 07:01:45;;;;;;;4.10;3.90;;;19.20;37.60;;;;;;4994928;28;20223;-62
2022/12/10 07:04:11;;;;;;;3.80;3.60;;;19.20;37.60;;;;;;4973257;28;20880;-61
2022/12/10 07:06:37;;;;;;;4.13;3.93;;;19.20;37.60;;;;;;4976529;28;20305;-63
2022/12/10 07:09:02;;;;;;;3.50;3.30;;;19.20;37.60;;;;;;4977563;28;20561;-62
2022/12/10 07:11:30;;;;;;;3.90;3.60;;;19.20;37.60;;;;;;4975147;28;20290;-63
2022/12/10 07:13:57;;;;;;;4.00;3.80;;;19.20;38.40;;;;;;4981906;28;20249;-63
2022/12/10 07:16:26;;;;;;;4.37;4.10;;;19.20;37.60;;;;;;4994380;28;20452;-63
2022/12/10 07:18:52;;;;;;;3.80;3.60;;;19.20;37.70;;;;;;4992732;28;20443;-63
2022/12/10 07:21:24;;;;;;;3.63;3.43;;;19.20;37.60;;;;;;4993710;28;20923;-63
2022/12/10 07:23:55;;;;;;;3.80;3.60;;;19.20;37.60;;;;;;4958597;28;20458;-62
2022/12/10 07:26:21;;;;;;;4.40;4.00;;;19.20;37.60;;;;;;4976332;28;20465;-63
2022/12/10 07:28:47;;;;;;;4.23;3.93;;;19.20;37.60;;;;;;4977667;28;20927;-63
2022/12/10 07:31:13;;;;;;;3.90;3.70;;;19.20;37.50;;;;;;4982582;28;20432;-63
2022/12/10 07:33:39;;;;;;;4.03;3.73;;;19.20;37.60;;;;;;4964873;28;20484;-63
2022/12/10 07:36:12;;;;;;;3.73;3.53;;;19.20;37.60;;;;;;4993592;28;20246;-63
2022/12/10 07:38:38;;;;;;;4.03;3.73;;;19.20;37.50;;;;;;4991346;28;20223;-63
2022/12/10 07:41:05;;;;;;;4.50;4.27;;;19.20;37.50;;;;;;4992169;28;21943;-63
2022/12/10 07:43:33;;;;;;;4.77;4.27;;;19.20;37.60;;;;;;4995495;28;20427;-63
2022/12/10 07:46:11;;;;;;;4.30;4.00;;;19.20;37.60;;;;;;4997365;28;20440;-63
2022/12/10 07:48:38;;;;;;;4.43;4.23;;;19.20;37.50;;;;;;4996330;28;20972;-63
2022/12/10 07:51:04;;;;;;;3.77;3.57;;;19.20;37.50;;;;;;4979040;28;20468;-63
2022/12/10 07:53:30;;;;;;;3.90;3.60;;;19.10;37.40;;;;;;4978471;28;20453;-62
2022/12/10 07:55:55;;;;;;;6.53;4.73;;;19.20;37.50;;;;;;4975688;28;20472;-61
2022/12/10 07:58:21;;;;;;;3.90;3.67;;;19.20;37.50;;;;;;4977467;28;20589;-62
2022/12/10 08:00:47;;;;;;;4.30;4.00;;;19.20;37.50;;;;;;4985062;28;20346;-61
2022/12/10 08:03:12;;;;;;;4.20;4.00;;;19.20;37.50;;;;;;4978034;28;20238;-62
2022/12/10 08:05:38;;;;;;;3.70;3.50;;;19.20;37.50;;;;;;4984655;28;20310;-62
2022/12/10 08:08:04;;;;;;;4.80;4.50;;;19.20;37.30;;;;;;4976613;28;20232;-62
2022/12/10 08:10:29;;;;;;;4.60;4.30;;;19.20;37.30;;;;;;4983211;28;20239;-62
2022/12/10 08:12:55;;;;;;;4.17;3.97;;;19.20;37.40;;;;;;4985927;28;20271;-61
2022/12/10 08:15:20;;;;;;;4.30;4.00;;;19.20;37.30;;;;;;4981463;28;20220;-62
2022/12/10 08:17:46;;;;;;;3.90;3.70;;;19.20;37.30;;;;;;4980766;28;20236;-62
2022/12/10 08:20:12;;;;;;;4.43;4.03;;;19.10;37.30;;;;;;4978784;28;20301;-62
2022/12/10 08:22:38;;;;;;;4.10;3.83;;;19.20;37.30;;;;;;4989297;28;20223;-61
2022/12/10 08:25:03;;;;;;;4.60;4.20;;;19.10;37.30;;;;;;4983284;28;20226;-63
2022/12/10 08:27:29;;;;;;;4.90;4.13;;;19.20;37.30;;;;;;4984841;28;20677;-63
2022/12/10 08:29:55;;;;;;;4.63;4.23;;;19.20;37.30;;;;;;4988926;28;20263;-62
2022/12/10 08:32:20;;;;;;;4.57;4.27;;;19.10;37.20;;;;;;4985747;28;20218;-62
2022/12/10 08:34:45;;;;;;;4.20;3.80;;;19.20;37.30;;;;;;4982706;28;20243;-62
2022/12/10 08:37:11;;;;;;;4.20;4.00;;;19.20;37.30;;;;;;4969470;28;20223;-63
2022/12/10 08:39:37;;;;;;;6.40;4.00;;;19.10;37.20;;;;;;4978403;28;20564;-62
2022/12/10 08:42:02;;;;;;;4.80;4.50;;;19.20;37.30;;;;;;4980768;28;20216;-62
2022/12/10 08:44:28;;;;;;;4.27;4.07;;;19.10;37.30;;;;;;4986107;28;20220;-62
2022/12/10 08:46:53;;;;;;;4.97;4.50;;;19.20;37.30;;;;;;4980710;28;20359;-62
2022/12/10 08:49:19;;;;;;;4.97;4.60;;;19.20;37.30;;;;;;4974374;28;20278;-63
2022/12/10 08:51:44;;;;;;;4.17;3.87;;;19.20;37.30;;;;;;4985084;28;20315;-63
2022/12/10 08:54:10;;;;;;;3.80;3.50;;;19.20;37.30;;;;;;4989735;28;20294;-62
2022/12/10 08:56:35;;;;;;;4.13;3.83;;;19.10;37.30;;;;;;4976000;28;20239;-62
2022/12/10 08:59:02;;;;;;;4.60;4.23;;;19.20;37.30;;;;;;4971784;28;20932;-62
2022/12/10 09:01:27;;;;;;;4.10;3.80;;;19.10;37.30;;;;;;4973406;28;20618;-60
2022/12/10 09:03:53;;;;;;;4.70;4.30;;;19.20;37.30;;;;;;4974370;28;20479;-61
2022/12/10 09:06:22;;;;;;;3.70;3.50;;;19.10;37.30;;;;;;4980378;28;20219;-61
2022/12/10 09:08:47;;;;;;;4.57;4.27;;;19.20;37.40;;;;;;4979779;28;20440;-61
2022/12/10 09:11:33;;;;;;;4.40;3.77;;;19.10;37.30;;;;;;4987292;28;20513;-60
2022/12/10 09:13:59;;;;;;;4.60;4.00;;;19.10;37.30;;;;;;4980299;28;20315;-60
2022/12/10 09:16:31;;;;;;;4.40;4.00;;;19.10;37.30;;;;;;4985566;28;20502;-64
2022/12/10 09:18:58;;;;;;;3.70;3.50;;;19.10;37.30;;;;;;4990829;28;20215;-63
2022/12/10 09:21:23;;;;;;;4.03;3.83;;;19.10;37.30;;;;;;4982956;28;20453;-63
2022/12/10 09:23:50;;;;;;;4.90;4.50;;;19.10;37.40;;;;;;4985378;28;20437;-64
2022/12/10 09:26:16;;;;;;;4.03;3.83;;;19.10;37.30;;;;;;4984469;28;20220;-63
2022/12/10 09:28:42;;;;;;;4.83;4.43;;;19.10;37.30;;;;;;4980482;28;20455;-63
2022/12/10 09:31:09;;;;;;;4.77;4.47;;;19.10;37.30;;;;;;4978464;28;21078;-63
2022/12/10 09:33:35;;;;;;;4.67;4.37;;;19.10;37.30;;;;;;4982045;28;20523;-63
2022/12/10 09:36:05;;;;;;;3.73;3.53;;;19.10;37.30;;;;;;4975156;28;20437;-63
2022/12/10 09:38:30;;;;;;;4.43;4.13;;;19.10;37.40;;;;;;5000378;28;20953;-64
2022/12/10 09:41:00;;;;;;;6.97;4.23;;;19.10;37.40;;;;;;4984563;28;20512;-63
2022/12/10 09:43:48;;;;;;;4.60;4.30;;;19.10;37.30;;;;;;4976927;28;20222;-63
2022/12/10 09:46:25;;;;;;;3.70;3.50;;;19.10;37.30;;;;;;4992713;28;20954;-65
2022/12/10 09:49:15;;;;;;;4.27;4.07;;;19.10;37.30;;;;;;4975949;28;20458;-64
2022/12/10 09:51:41;;;;;;;4.70;4.40;;;19.10;37.30;;;;;;4977841;28;20471;-64
2022/12/10 09:54:17;;;;;;;4.57;4.27;;;19.10;37.40;;;;;;4981234;28;20421;-65
2022/12/10 09:56:44;;;;;;;4.03;3.73;;;19.10;37.30;;;;;;4965639;28;20223;-64
2022/12/10 09:59:39;;;;;;;4.23;3.93;;;19.10;37.40;;;;;;4983627;28;20538;-65
2022/12/10 10:02:24;;;;;;;5.60;3.40;;;19.10;37.40;;;;;;4998335;28;20461;-65
2022/12/10 10:04:51;;;;;;;4.10;3.80;;;19.10;37.30;;;;;;4985047;28;20450;-64
2022/12/10 10:07:24;;;;;;;4.30;4.00;;;19.10;37.30;;;;;;4971829;28;20932;-64
2022/12/10 10:09:54;;;;;;;4.50;4.20;;;19.10;37.30;;;;;;4996095;28;20439;-65
2022/12/10 10:12:20;;;;;;;3.93;3.67;;;19.10;37.30;;;;;;4997019;28;20480;-64
2022/12/10 10:14:46;;;;;;;4.10;3.90;;;19.10;37.30;;;;;;4993224;28;20449;-64
2022/12/10 10:17:21;;;;;;;4.10;3.80;;;19.10;37.40;;;;;;4982444;28;20328;-64
2022/12/10 10:19:46;;;;;;;4.50;4.10;;;19.10;37.40;;;;;;4995070;28;20742;-65
2022/12/10 10:22:12;;;;;;;4.37;4.07;;;19.10;37.40;;;;;;5000472;28;20449;-64
2022/12/10 10:24:42;;;;;;;4.03;3.80;;;19.10;37.40;;;;;;4998635;28;20238;-64
2022/12/10 10:27:10;;;;;;;16.00;5.53;;;19.10;37.40;;;;;;4985502;28;20212;-63
2022/12/10 10:29:36;;;;;;;41.57;7.67;;;19.10;37.40;;;;;;4989239;28;20505;-63
2022/12/10 10:32:20;;;;;;;23.23;6.43;;;19.10;37.40;;;;;;4976298;28;20641;-63
2022/12/10 10:34:51;;;;;;;38.90;6.67;;;19.10;37.30;;;;;;4975805;28;20246;-63
2022/12/10 10:37:25;;;;;;;22.97;6.30;;;19.10;37.30;;;;;;4983703;28;20439;-63
2022/12/10 10:39:51;;;;;;;9.97;5.30;;;19.10;37.30;;;;;;4974148;28;20454;-63
2022/12/10 10:42:43;;;;;;;21.50;5.57;;;19.10;37.30;;;;;;4979378;28;20960;-64
2022/12/10 10:45:41;;;;;;;7.30;5.63;;;19.10;37.40;;;;;;4978705;28;20783;-63
2022/12/10 10:48:22;;;;;;;17.33;5.57;;;19.10;37.30;;;;;;4996240;28;20434;-63
2022/12/10 10:51:04;;;;;;;13.27;5.20;;;19.10;37.30;;;;;;4970810;28;20468;-64
2022/12/10 10:53:40;;;;;;;8.83;4.70;;;19.10;37.30;;;;;;4989882;28;20439;-60
2022/12/10 10:56:39;;;;;;;6.27;4.63;;;19.10;37.40;;;;;;4989432;28;20448;-60
2022/12/10 10:59:19;;;;;;;5.43;4.67;;;19.10;37.40;;;;;;4996929;28;20482;-61
2022/12/10 11:01:49;;;;;;;11.17;3.97;;;19.10;37.40;;;;;;4987643;28;20444;-61
2022/12/10 11:04:17;;;;;;;8.43;4.33;;;19.10;37.40;;;;;;4992573;28;20440;-62
2022/12/10 11:06:43;;;;;;;10.83;4.60;;;19.10;37.40;;;;;;4996865;28;20576;-61
2022/12/10 11:09:20;;;;;;;7.60;4.00;;;19.10;37.40;;;;;;4984262;28;20450;-62
2022/12/10 11:11:51;;;;;;;7.50;4.53;;;19.10;37.40;;;;;;4983961;28;20464;-61
2022/12/10 11:14:44;;;;;;;5.00;4.10;;;19.10;37.40;;;;;;4997228;28;20453;-62
2022/12/10 11:17:09;;;;;;;7.10;4.10;;;19.10;37.40;;;;;;4977138;28;20451;-61
2022/12/10 11:19:41;;;;;;;7.50;4.37;;;19.10;37.40;;;;;;4980562;28;20882;-62
2022/12/10 11:22:29;;;;;;;3.87;3.50;;;19.10;37.40;;;;;;4976917;28;20244;-62
2022/12/10 11:24:56;;;;;;;4.60;4.27;;;19.10;37.30;;;;;;4969168;28;20428;-62
2022/12/10 11:27:32;;;;;;;4.47;3.87;;;19.10;37.30;;;;;;4979450;28;21177;-62
2022/12/10 11:30:22;;;;;;;4.07;3.60;;;19.10;37.40;;;;;;4978140;28;20477;-61
2022/12/10 11:33:18;;;;;;;3.93;3.63;;;19.10;37.30;;;;;;4985224;28;20470;-60
2022/12/10 11:36:25;;;;;;;4.37;3.97;;;19.10;37.30;;;;;;5010427;28;20764;-61
2022/12/10 11:39:25;;;;;;;4.77;4.40;;;19.10;37.30;;;;;;4993870;28;20773;-61
2022/12/10 11:41:59;;;;;;;4.17;3.73;;;19.10;37.30;;;;;;4980394;28;20481;-61
2022/12/10 11:44:47;;;;;;;4.10;3.73;;;19.10;37.40;;;;;;4984419;28;20422;-62
2022/12/10 11:47:31;;;;;;;5.40;4.90;;;19.10;37.30;;;;;;4990331;28;20460;-62
2022/12/10 11:50:29;;;;;;;4.20;3.90;;;19.10;37.20;;;;;;4993266;28;20465;-61
2022/12/10 11:53:07;;;;;;;4.80;4.40;;;19.10;37.20;;;;;;4992583;28;20899;-61
2022/12/10 11:55:46;;;;;;;4.37;3.97;;;19.10;37.30;;;;;;4986869;28;20456;-61
2022/12/10 11:58:37;;;;;;;5.00;4.60;;;19.10;37.20;;;;;;4985635;28;20440;-61
2022/12/10 12:01:44;;;;;;;4.30;4.10;;;19.10;37.30;;;;;;4984699;28;20489;-61
2022/12/10 12:04:29;;;;;;;4.13;3.83;;;19.10;37.30;;;;;;4984113;28;20446;-62
2022/12/10 12:07:12;;;;;;;7.70;3.57;;;19.10;37.30;;;;;;4980176;28;21031;-61
2022/12/10 12:09:48;;;;;;;4.20;3.90;;;19.10;37.30;;;;;;4982788;28;20459;-62
2022/12/10 12:12:51;;;;;;;4.60;3.70;;;19.10;37.30;;;;;;4990401;28;20764;-61
2022/12/10 12:15:38;;;;;;;4.60;4.20;;;19.10;37.30;;;;;;4984915;28;20441;-61
2022/12/10 12:18:12;;;;;;;3.90;3.63;;;19.10;37.40;;;;;;4998338;28;20438;-62
2022/12/10 12:20:46;;;;;;;3.93;3.63;;;19.10;37.30;;;;;;4991959;28;20934;-61
2022/12/10 12:23:19;;;;;;;3.70;3.50;;;19.10;37.30;;;;;;4998677;28;20430;-61
2022/12/10 12:25:48;;;;;;;4.33;3.40;;;19.10;37.40;;;;;;4996802;28;20914;-63
2022/12/10 12:28:50;;;;;;;3.37;3.17;;;19.10;37.40;;;;;;4986530;28;20573;-61
2022/12/10 12:31:24;;;;;;;3.90;3.70;;;19.10;38.10;;;;;;4972563;28;20452;-61
2022/12/10 12:33:52;;;;;;;10.53;3.50;;;19.10;38.10;;;;;;4974178;28;20421;-64
2022/12/10 12:36:36;;;;;;;4.90;3.47;;;19.10;37.40;;;;;;4974114;28;20540;-63
2022/12/10 12:39:28;;;;;;;4.73;3.50;;;19.10;37.30;;;;;;4971674;28;20486;-61
2022/12/10 12:42:13;;;;;;;3.87;3.57;;;19.10;37.30;;;;;;4999694;28;20975;-62
2022/12/10 12:44:58;;;;;;;3.90;3.70;;;19.10;37.40;;;;;;4999681;28;20448;-62
2022/12/10 12:47:32;;;;;;;3.90;3.60;;;19.10;37.40;;;;;;4976060;28;20969;-62
2022/12/10 12:50:00;;;;;;;4.57;4.17;;;19.10;37.40;;;;;;4989226;28;20428;-62
2022/12/10 12:52:32;;;;;;;4.17;3.87;;;19.10;37.40;;;;;;4992963;28;20440;-62
2022/12/10 12:55:01;;;;;;;3.60;3.33;;;19.10;37.40;;;;;;4985549;28;20449;-62
2022/12/10 12:57:52;;;;;;;3.83;3.53;;;19.10;37.40;;;;;;4982018;28;20543;-62
2022/12/10 13:00:21;;;;;;;3.73;3.50;;;19.10;37.40;;;;;;4984113;28;20569;-61
2022/12/10 13:02:59;;;;;;;4.30;4.00;;;19.10;37.40;;;;;;4997437;28;20628;-62
2022/12/10 13:05:24;;;;;;;4.50;4.20;;;19.10;37.40;;;;;;4985796;28;20451;-64
2022/12/10 13:08:22;;;;;;;3.50;3.20;;;19.10;37.40;;;;;;4983993;28;20458;-63
2022/12/10 13:11:00;;;;;;;3.50;3.30;;;19.10;37.30;;;;;;5000241;28;20235;-62
2022/12/10 13:13:32;;;;;;;3.93;3.43;;;19.10;37.30;;;;;;4984309;28;20429;-63